Orbital elements of SL-8 DEB
| Launched | 12 November 1986 |
| Flight ended | – |
| Launch site | Plesetsk Missile and Space Complex, Russia |
| Owner | Commonwealth of Independent States (former USSR) |
| NORAD ID | 18552 |
| Date fetched |
Epoch osculation |
Inc. [°] |
Ecc. | RA asc node [hr] |
Arg Peri. [°] |
Mean anom [°] |
Mean motion [rev/day] |
Abs. mag |
| Date fetched |
Epoch osculation |
Inc. [°] |
Ecc. | RA asc node [hr] |
Arg Peri. [°] |
Mean anom [°] |
Mean motion [rev/day] |
Abs. mag |
| 2026 May 06 17:57 | 2026 May 05 02:30:41 | 82.9158 | 0.00291 | 10.9820 | 80.4924 | 308.9796 | 14.25738 | – |
| 2026 May 05 17:57 | 2026 May 05 02:30:41 | 82.9158 | 0.00291 | 10.9820 | 80.4924 | 308.9796 | 14.25738 | – |
| 2026 May 04 17:57 | 2026 Apr 30 13:36:45 | 82.9168 | 0.00294 | 11.2267 | 93.4591 | 308.9796 | 14.25738 | – |
| 2026 May 03 17:57 | 2026 Apr 30 13:36:45 | 82.9168 | 0.00294 | 11.2267 | 93.4591 | 308.9796 | 14.25738 | – |
| 2026 May 02 17:57 | 2026 Apr 30 13:36:45 | 82.9168 | 0.00294 | 11.2267 | 93.4591 | 308.9796 | 14.25738 | – |
| 2026 May 01 17:56 | 2026 Apr 30 13:36:45 | 82.9168 | 0.00294 | 11.2267 | 93.4591 | 308.9796 | 14.25738 | – |
| 2026 Apr 30 17:56 | 2026 Apr 30 13:36:45 | 82.9168 | 0.00294 | 11.2267 | 93.4591 | 308.9796 | 14.25738 | – |
| 2026 Apr 29 17:57 | 2026 Apr 24 03:45:03 | 82.9182 | 0.00296 | 11.5723 | 111.6794 | 308.9796 | 14.25738 | – |
| 2026 Apr 28 17:56 | 2026 Apr 24 03:45:03 | 82.9182 | 0.00296 | 11.5723 | 111.6794 | 308.9796 | 14.25738 | – |
| 2026 Apr 27 17:58 | 2026 Apr 24 03:45:03 | 82.9182 | 0.00296 | 11.5723 | 111.6794 | 308.9796 | 14.25738 | – |
| 2026 Apr 26 17:58 | 2026 Apr 24 03:45:03 | 82.9182 | 0.00296 | 11.5723 | 111.6794 | 308.9796 | 14.25738 | – |
| 2026 Apr 25 17:58 | 2026 Apr 24 03:45:03 | 82.9182 | 0.00296 | 11.5723 | 111.6794 | 308.9796 | 14.25738 | – |
| 2026 Apr 24 17:59 | 2026 Apr 24 03:45:03 | 82.9182 | 0.00296 | 11.5723 | 111.6794 | 308.9796 | 14.25738 | – |
| 2026 Apr 23 17:57 | 2026 Apr 19 10:50:36 | 82.9179 | 0.00298 | 11.8259 | 124.7516 | 308.9796 | 14.25738 | – |
| 2026 Apr 22 17:57 | 2026 Apr 19 10:50:36 | 82.9179 | 0.00298 | 11.8259 | 124.7516 | 308.9796 | 14.25738 | – |
| 2026 Apr 21 17:57 | 2026 Apr 19 10:50:36 | 82.9179 | 0.00298 | 11.8259 | 124.7516 | 308.9796 | 14.25738 | – |
| 2026 Apr 20 17:57 | 2026 Apr 19 10:50:36 | 82.9179 | 0.00298 | 11.8259 | 124.7516 | 308.9796 | 14.25738 | – |
| 2026 Apr 19 17:58 | 2026 Apr 19 10:50:36 | 82.9179 | 0.00298 | 11.8259 | 124.7516 | 308.9796 | 14.25738 | – |
| 2026 Apr 18 17:56 | 2026 Apr 13 04:58:43 | 82.9183 | 0.00298 | 12.1625 | 142.2527 | 308.9796 | 14.25738 | – |
| 2026 Apr 16 17:57 | 2026 Apr 13 04:58:43 | 82.9183 | 0.00298 | 12.1625 | 142.2527 | 308.9796 | 14.25738 | – |
| 2026 Apr 14 17:57 | 2026 Apr 13 04:58:43 | 82.9183 | 0.00298 | 12.1625 | 142.2527 | 308.9796 | 14.25738 | – |
| 2026 Apr 13 17:57 | 2026 Apr 13 04:58:43 | 82.9183 | 0.00298 | 12.1625 | 142.2527 | 308.9796 | 14.25738 | – |
| 2026 Apr 12 17:57 | 2026 Apr 08 12:03:42 | 82.9179 | 0.00297 | 12.4161 | 155.3006 | 308.9796 | 14.25738 | – |
| 2026 Apr 11 17:57 | 2026 Apr 08 12:03:42 | 82.9179 | 0.00297 | 12.4161 | 155.3006 | 308.9796 | 14.25738 | – |
| 2026 Apr 10 17:58 | 2026 Apr 08 12:03:42 | 82.9179 | 0.00297 | 12.4161 | 155.3006 | 308.9796 | 14.25738 | – |
| 2026 Apr 09 18:01 | 2026 Apr 08 12:03:42 | 82.9179 | 0.00297 | 12.4161 | 155.3006 | 308.9796 | 14.25738 | – |